sensor_id;sensor_type;location;lat;lon;timestamp;P1;P2;P0
44674;PMS5003;30388;52.038;-1.478;2022-12-07T16:58:15;30;30;
44674;PMS5003;30388;52.038;-1.478;2022-12-07T17:00:43;0;0;
44674;PMS5003;30388;52.038;-1.478;2022-12-07T17:03:12;0;0;
44674;PMS5003;30388;52.038;-1.478;2022-12-07T17:05:44;0;0;
44674;PMS5003;30388;52.038;-1.478;2022-12-07T17:08:12;0;0;
44674;PMS5003;30388;52.038;-1.478;2022-12-07T17:10:41;0;0;
44674;PMS5003;30388;52.038;-1.478;2022-12-07T17:13:09;0;0;
44674;PMS5003;30388;52.038;-1.478;2022-12-07T17:15:38;0;0;
44674;PMS5003;30388;52.038;-1.478;2022-12-07T17:18:05;0;0;
44674;PMS5003;30388;52.038;-1.478;2022-12-07T17:20:32;0;0;
44674;PMS5003;30388;52.038;-1.478;2022-12-07T17:23:00;0;0;
44674;PMS5003;30388;52.038;-1.478;2022-12-07T17:25:27;0;0;
44674;PMS5003;30388;52.038;-1.478;2022-12-07T17:27:55;0;0;
44674;PMS5003;30388;52.038;-1.478;2022-12-07T17:30:22;0;0;
44674;PMS5003;30388;52.038;-1.478;2022-12-07T17:32:51;0;0;
44674;PMS5003;30388;52.038;-1.478;2022-12-07T17:35:18;0;0;
44674;PMS5003;30388;52.038;-1.478;2022-12-07T17:37:46;319;319;
44674;PMS5003;30388;52.038;-1.478;2022-12-07T17:40:13;575;575;
44674;PMS5003;30388;52.038;-1.478;2022-12-07T17:42:40;608;608;
44674;PMS5003;30388;52.038;-1.478;2022-12-07T17:45:08;625;625;
44674;PMS5003;30388;52.038;-1.478;2022-12-07T17:47:36;649;649;
44674;PMS5003;30388;52.038;-1.478;2022-12-07T17:50:05;639;638;
44674;PMS5003;30388;52.038;-1.478;2022-12-07T17:52:33;683;680;
44674;PMS5003;30388;52.038;-1.478;2022-12-07T17:55:04;671;671;
44674;PMS5003;30388;52.038;-1.478;2022-12-07T17:57:32;679;677;
44674;PMS5003;30388;52.038;-1.478;2022-12-07T17:59:59;677;676;
44674;PMS5003;30388;52.038;-1.478;2022-12-07T18:02:26;648;648;
44674;PMS5003;30388;52.038;-1.478;2022-12-07T18:04:53;642;642;
44674;PMS5003;30388;52.038;-1.478;2022-12-07T18:07:21;634;634;
44674;PMS5003;30388;52.038;-1.478;2022-12-07T18:09:48;632;632;
44674;PMS5003;30388;52.038;-1.478;2022-12-07T18:12:15;654;654;
44674;PMS5003;30388;52.038;-1.478;2022-12-07T18:14:42;601;598;
44674;PMS5003;30388;52.038;-1.478;2022-12-07T18:17:08;552;551;
44674;PMS5003;30388;52.038;-1.478;2022-12-07T18:19:35;542;542;
44674;PMS5003;30388;52.038;-1.478;2022-12-07T18:22:03;536;532;
44674;PMS5003;30388;52.038;-1.478;2022-12-07T18:24:30;351;351;
44674;PMS5003;30388;52.038;-1.478;2022-12-07T18:26:58;343;337;
44674;PMS5003;30388;52.038;-1.478;2022-12-07T18:29:25;337;334;
44674;PMS5003;30388;52.038;-1.478;2022-12-07T18:31:54;301;298;
44674;PMS5003;30388;52.038;-1.478;2022-12-07T18:34:21;328;328;
44674;PMS5003;30388;52.038;-1.478;2022-12-07T18:36:54;319;317;
44674;PMS5003;30388;52.038;-1.478;2022-12-07T18:39:22;384;381;
44674;PMS5003;30388;52.038;-1.478;2022-12-07T18:41:49;459;455;
44674;PMS5003;30388;52.038;-1.478;2022-12-07T18:44:17;252;249;
44674;PMS5003;30388;52.038;-1.478;2022-12-07T18:46:44;238;238;
44674;PMS5003;30388;52.038;-1.478;2022-12-07T18:49:11;289;287;
44674;PMS5003;30388;52.038;-1.478;2022-12-07T18:51:39;233;229;
44674;PMS5003;30388;52.038;-1.478;2022-12-07T18:54:07;238;235;
44674;PMS5003;30388;52.038;-1.478;2022-12-07T18:56:34;240;238;
44674;PMS5003;30388;52.038;-1.478;2022-12-07T18:59:03;245;245;
44674;PMS5003;30388;52.038;-1.478;2022-12-07T19:01:32;235;235;
44674;PMS5003;30388;52.038;-1.478;2022-12-07T19:03:59;246;241;
44674;PMS5003;30388;52.038;-1.478;2022-12-07T19:06:26;240;240;
44674;PMS5003;30388;52.038;-1.478;2022-12-07T19:08:54;243;239;
44674;PMS5003;30388;52.038;-1.478;2022-12-07T19:11:22;240;238;
44674;PMS5003;30388;52.038;-1.478;2022-12-07T19:13:50;238;231;
44674;PMS5003;30388;52.038;-1.478;2022-12-07T19:16:18;240;234;
44674;PMS5003;30388;52.038;-1.478;2022-12-07T19:18:45;238;233;
44674;PMS5003;30388;52.038;-1.478;2022-12-07T19:21:12;233;226;
44674;PMS5003;30388;52.038;-1.478;2022-12-07T19:23:40;223;222;
44674;PMS5003;30388;52.038;-1.478;2022-12-07T19:26:07;226;212;
44674;PMS5003;30388;52.038;-1.478;2022-12-07T19:28:34;223;218;
44674;PMS5003;30388;52.038;-1.478;2022-12-07T19:31:04;229;214;
44674;PMS5003;30388;52.038;-1.478;2022-12-07T19:33:32;217;207;
44674;PMS5003;30388;52.038;-1.478;2022-12-07T19:35:58;170;163;
44674;PMS5003;30388;52.038;-1.478;2022-12-07T19:38:25;117;107;
44674;PMS5003;30388;52.038;-1.478;2022-12-07T19:40:53;74;68;
44674;PMS5003;30388;52.038;-1.478;2022-12-07T19:43:21;117;114;
44674;PMS5003;30388;52.038;-1.478;2022-12-07T19:45:49;117;115;
44674;PMS5003;30388;52.038;-1.478;2022-12-07T19:48:16;109;102;
44674;PMS5003;30388;52.038;-1.478;2022-12-07T19:50:43;104;103;
44674;PMS5003;30388;52.038;-1.478;2022-12-07T19:53:10;82;77;
44674;PMS5003;30388;52.038;-1.478;2022-12-07T19:55:38;88;78;
44674;PMS5003;30388;52.038;-1.478;2022-12-07T19:58:05;22;20;
44674;PMS5003;30388;52.038;-1.478;2022-12-07T20:00:33;18;17;
44674;PMS5003;30388;52.038;-1.478;2022-12-07T20:03:00;27;21;
44674;PMS5003;30388;52.038;-1.478;2022-12-07T20:05:27;17;16;
44674;PMS5003;30388;52.038;-1.478;2022-12-07T20:07:54;21;21;
44674;PMS5003;30388;52.038;-1.478;2022-12-07T20:10:21;20;16;
44674;PMS5003;30388;52.038;-1.478;2022-12-07T20:12:49;12;12;
44674;PMS5003;30388;52.038;-1.478;2022-12-07T20:15:16;29;24;
44674;PMS5003;30388;52.038;-1.478;2022-12-07T20:17:43;30;27;
44674;PMS5003;30388;52.038;-1.478;2022-12-07T20:20:10;26;17;
44674;PMS5003;30388;52.038;-1.478;2022-12-07T20:22:37;24;16;
44674;PMS5003;30388;52.038;-1.478;2022-12-07T20:25:05;25;25;
44674;PMS5003;30388;52.038;-1.478;2022-12-07T20:27:32;30;25;
44674;PMS5003;30388;52.038;-1.478;2022-12-07T20:29:59;42;39;
44674;PMS5003;30388;52.038;-1.478;2022-12-07T20:32:26;39;37;
44674;PMS5003;30388;52.038;-1.478;2022-12-07T20:34:53;53;46;
44674;PMS5003;30388;52.038;-1.478;2022-12-07T20:37:21;35;25;
44674;PMS5003;30388;52.038;-1.478;2022-12-07T20:39:49;41;38;
44674;PMS5003;30388;52.038;-1.478;2022-12-07T20:42:16;47;42;
44674;PMS5003;30388;52.038;-1.478;2022-12-07T20:44:43;25;21;
44674;PMS5003;30388;52.038;-1.478;2022-12-07T20:47:10;15;12;
44674;PMS5003;30388;52.038;-1.478;2022-12-07T20:49:37;16;14;
44674;PMS5003;30388;52.038;-1.478;2022-12-07T20:52:04;23;20;
44674;PMS5003;30388;52.038;-1.478;2022-12-07T20:54:32;37;32;
44674;PMS5003;30388;52.038;-1.478;2022-12-07T20:57:00;36;28;
44674;PMS5003;30388;52.038;-1.478;2022-12-07T20:59:28;50;45;
44674;PMS5003;30388;52.038;-1.478;2022-12-07T21:01:54;54;43;
44674;PMS5003;30388;52.038;-1.478;2022-12-07T21:04:22;63;54;
44674;PMS5003;30388;52.038;-1.478;2022-12-07T21:06:49;37;29;
44674;PMS5003;30388;52.038;-1.478;2022-12-07T21:09:16;65;59;
44674;PMS5003;30388;52.038;-1.478;2022-12-07T21:11:43;54;50;
44674;PMS5003;30388;52.038;-1.478;2022-12-07T21:14:10;70;63;
44674;PMS5003;30388;52.038;-1.478;2022-12-07T21:16:37;32;29;
44674;PMS5003;30388;52.038;-1.478;2022-12-07T21:19:04;42;38;
44674;PMS5003;30388;52.038;-1.478;2022-12-07T21:21:32;48;48;
44674;PMS5003;30388;52.038;-1.478;2022-12-07T21:24:01;56;52;
44674;PMS5003;30388;52.038;-1.478;2022-12-07T21:26:30;27;23;
44674;PMS5003;30388;52.038;-1.478;2022-12-07T21:28:58;18;15;
44674;PMS5003;30388;52.038;-1.478;2022-12-07T21:31:27;34;30;
44674;PMS5003;30388;52.038;-1.478;2022-12-07T21:33:54;15;14;
44674;PMS5003;30388;52.038;-1.478;2022-12-07T21:36:22;36;34;
44674;PMS5003;30388;52.038;-1.478;2022-12-07T21:38:50;17;16;
44674;PMS5003;30388;52.038;-1.478;2022-12-07T21:41:18;33;29;
44674;PMS5003;30388;52.038;-1.478;2022-12-07T21:43:47;27;21;
44674;PMS5003;30388;52.038;-1.478;2022-12-07T21:46:14;28;19;
44674;PMS5003;30388;52.038;-1.478;2022-12-07T21:48:48;28;24;
44674;PMS5003;30388;52.038;-1.478;2022-12-07T21:51:15;23;18;
44674;PMS5003;30388;52.038;-1.478;2022-12-07T21:53:43;21;20;
44674;PMS5003;30388;52.038;-1.478;2022-12-07T21:56:12;35;31;
44674;PMS5003;30388;52.038;-1.478;2022-12-07T21:58:42;19;15;
44674;PMS5003;30388;52.038;-1.478;2022-12-07T22:01:13;37;28;
44674;PMS5003;30388;52.038;-1.478;2022-12-07T22:03:41;31;29;
44674;PMS5003;30388;52.038;-1.478;2022-12-07T22:06:11;19;18;
44674;PMS5003;30388;52.038;-1.478;2022-12-07T22:08:38;15;14;
44674;PMS5003;30388;52.038;-1.478;2022-12-07T22:11:05;18;15;
44674;PMS5003;30388;52.038;-1.478;2022-12-07T22:13:33;20;16;
44674;PMS5003;30388;52.038;-1.478;2022-12-07T22:16:02;33;32;
44674;PMS5003;30388;52.038;-1.478;2022-12-07T22:18:30;25;21;
44674;PMS5003;30388;52.038;-1.478;2022-12-07T22:20:58;25;22;
44674;PMS5003;30388;52.038;-1.478;2022-12-07T22:23:25;22;16;
44674;PMS5003;30388;52.038;-1.478;2022-12-07T22:25:52;19;15;
44674;PMS5003;30388;52.038;-1.478;2022-12-07T22:28:20;18;18;
44674;PMS5003;30388;52.038;-1.478;2022-12-07T22:30:49;20;20;
44674;PMS5003;30388;52.038;-1.478;2022-12-07T22:33:15;24;20;
44674;PMS5003;30388;52.038;-1.478;2022-12-07T22:35:43;19;16;
44674;PMS5003;30388;52.038;-1.478;2022-12-07T22:38:17;23;18;
44674;PMS5003;30388;52.038;-1.478;2022-12-07T22:40:45;24;21;
44674;PMS5003;30388;52.038;-1.478;2022-12-07T22:43:12;19;19;
44674;PMS5003;30388;52.038;-1.478;2022-12-07T22:45:39;15;15;
44674;PMS5003;30388;52.038;-1.478;2022-12-07T22:48:07;33;32;
44674;PMS5003;30388;52.038;-1.478;2022-12-07T22:50:34;27;25;
44674;PMS5003;30388;52.038;-1.478;2022-12-07T22:53:02;23;19;
44674;PMS5003;30388;52.038;-1.478;2022-12-07T22:55:30;15;12;
44674;PMS5003;30388;52.038;-1.478;2022-12-07T22:57:58;15;11;
44674;PMS5003;30388;52.038;-1.478;2022-12-07T23:00:25;14;9;
44674;PMS5003;30388;52.038;-1.478;2022-12-07T23:02:52;13;10;
44674;PMS5003;30388;52.038;-1.478;2022-12-07T23:05:20;14;7;
44674;PMS5003;30388;52.038;-1.478;2022-12-07T23:07:48;9;6;
44674;PMS5003;30388;52.038;-1.478;2022-12-07T23:10:15;11;10;
44674;PMS5003;30388;52.038;-1.478;2022-12-07T23:12:43;7;6;
44674;PMS5003;30388;52.038;-1.478;2022-12-07T23:15:10;19;15;
44674;PMS5003;30388;52.038;-1.478;2022-12-07T23:17:37;16;9;
44674;PMS5003;30388;52.038;-1.478;2022-12-07T23:20:04;13;10;
44674;PMS5003;30388;52.038;-1.478;2022-12-07T23:22:32;9;9;
44674;PMS5003;30388;52.038;-1.478;2022-12-07T23:25:00;10;7;
44674;PMS5003;30388;52.038;-1.478;2022-12-07T23:27:27;5;5;
44674;PMS5003;30388;52.038;-1.478;2022-12-07T23:29:55;7;7;
44674;PMS5003;30388;52.038;-1.478;2022-12-07T23:32:22;13;9;
44674;PMS5003;30388;52.038;-1.478;2022-12-07T23:34:49;10;10;
44674;PMS5003;30388;52.038;-1.478;2022-12-07T23:37:16;12;10;
44674;PMS5003;30388;52.038;-1.478;2022-12-07T23:39:43;12;11;
44674;PMS5003;30388;52.038;-1.478;2022-12-07T23:42:10;19;16;
44674;PMS5003;30388;52.038;-1.478;2022-12-07T23:44:38;10;9;
44674;PMS5003;30388;52.038;-1.478;2022-12-07T23:47:06;20;18;
44674;PMS5003;30388;52.038;-1.478;2022-12-07T23:49:33;14;11;
44674;PMS5003;30388;52.038;-1.478;2022-12-07T23:52:00;7;7;
44674;PMS5003;30388;52.038;-1.478;2022-12-07T23:54:28;15;11;
44674;PMS5003;30388;52.038;-1.478;2022-12-07T23:56:55;11;11;
44674;PMS5003;30388;52.038;-1.478;2022-12-07T23:59:22;18;11;
